Time;durP1;ratioP1;P1;durP2;ratioP2;P2;SDS_P1;SDS_P2;PMS_P1;PMS_P2;Temp;Humidity;BMP_temperature;BMP_pressure;BME280_temperature;BME280_humidity;BME280_pressure;Samples;Min_cycle;Max_cycle;Signal;HPM_P1;HPM_P2
2023/09/24 00:00:10;;;;;;;21.73;10.60;;;;;;;-141.97;60.29;47488.31;5013395;28;20336;-80
2023/09/24 00:02:38;;;;;;;25.07;12.10;;;;;;;-141.97;60.24;47463.34;5014645;28;20171;-80
2023/09/24 00:05:08;;;;;;;25.57;11.70;;;;;;;-141.97;60.12;47465.25;5014712;28;20249;-80
2023/09/24 00:07:33;;;;;;;27.47;12.13;;;;;;;-141.97;60.77;47442.19;5014733;28;20155;-79
2023/09/24 00:10:00;;;;;;;20.30;11.30;;;;;;;-141.97;60.58;47447.97;5046557;28;20361;-80
2023/09/24 00:12:27;;;;;;;24.83;11.10;;;;;;;-141.97;60.85;47474.88;5014464;28;20230;-80
2023/09/24 00:14:52;;;;;;;19.00;9.67;;;;;;;-141.97;61.65;47457.56;5014545;28;20187;-80
2023/09/24 00:17:18;;;;;;;16.83;9.50;;;;;;;-141.97;61.77;47465.25;5014656;28;20268;-80
2023/09/24 00:19:44;;;;;;;21.17;9.87;;;;;;;-141.97;61.89;47684.38;5014366;28;20183;-79
2023/09/24 00:22:10;;;;;;;19.90;9.47;;;;;;;-141.97;62.17;47472.94;5013021;28;20628;-80
2023/09/24 00:24:35;;;;;;;14.43;9.07;;;;;;;-141.97;61.92;47499.84;5014310;28;20154;-80
2023/09/24 00:27:00;;;;;;;17.43;9.47;;;;;;;-141.97;61.70;47482.56;5013380;28;20616;-80
2023/09/24 00:29:26;;;;;;;17.50;9.53;;;;;;;-141.97;61.57;47415.28;5046464;28;20237;-79
2023/09/24 00:31:51;;;;;;;17.43;9.47;;;;;;;-141.97;61.74;47486.41;5013717;28;20187;-80
2023/09/24 00:34:17;;;;;;;17.73;9.60;;;;;;;-141.97;61.89;47392.22;5013955;28;20167;-79
2023/09/24 00:36:42;;;;;;;18.33;9.03;;;;;;;-141.97;61.67;47449.88;5013848;28;20191;-79
2023/09/24 00:39:08;;;;;;;22.57;9.20;;;;;;;-141.97;61.74;47411.44;5014013;28;20159;-79
2023/09/24 00:41:33;;;;;;;18.03;9.00;;;;;;;-141.97;61.85;47484.47;5013731;28;20173;-79
2023/09/24 00:44:00;;;;;;;17.30;9.33;;;;;;;-141.97;61.71;47444.13;5014068;28;20229;-79
2023/09/24 00:46:26;;;;;;;17.97;9.43;;;;;;;-141.97;62.06;47465.25;5013739;28;20189;-79
2023/09/24 00:48:53;;;;;;;15.93;9.47;;;;;;;-141.97;61.92;47488.31;5013987;28;20556;-80
2023/09/24 00:51:23;;;;;;;19.13;9.30;;;;;;;-141.97;61.76;47469.09;5013969;28;20587;-80
2023/09/24 00:53:52;;;;;;;20.17;9.37;;;;;;;-141.97;61.88;47396.06;5013955;28;20169;-80
2023/09/24 00:56:18;;;;;;;20.83;9.10;;;;;;;-141.97;61.57;47453.72;5013969;28;20635;-80
2023/09/24 00:58:51;;;;;;;16.83;9.17;;;;;;;-141.97;61.54;47371.09;5012689;28;20175;-79
2023/09/24 01:01:17;;;;;;;14.90;9.07;;;;;;;-141.97;61.48;47422.97;5014342;28;20246;-79
2023/09/24 01:03:43;;;;;;;18.07;9.40;;;;;;;-141.97;61.76;47417.22;5017821;28;20163;-80
2023/09/24 01:06:08;;;;;;;18.63;10.17;;;;;;;-141.97;62.01;47478.72;5014621;28;20159;-80
2023/09/24 01:08:35;;;;;;;18.73;9.60;;;;;;;-141.97;61.87;47467.19;5014439;28;20347;-79
2023/09/24 01:11:01;;;;;;;15.87;9.40;;;;;;;-141.97;61.61;47490.25;5013656;28;20193;-80
2023/09/24 01:13:38;;;;;;;16.83;10.00;;;;;;;-141.97;62.29;47463.34;5013137;28;20593;-80
2023/09/24 01:16:05;;;;;;;19.00;9.43;;;;;;;-141.97;62.33;47469.09;5013435;28;20299;-80
2023/09/24 01:18:33;;;;;;;18.87;9.50;;;;;;;-141.97;62.29;47446.03;5013576;28;20155;-80
2023/09/24 01:20:59;;;;;;;18.60;9.43;;;;;;;-141.97;62.55;47463.34;5011723;28;20159;-79
2023/09/24 01:23:25;;;;;;;19.33;9.53;;;;;;;-141.97;62.71;47484.47;5013001;28;20173;-79
2023/09/24 01:25:51;;;;;;;17.27;9.17;;;;;;;-141.97;62.61;47442.19;5013319;28;20166;-79
2023/09/24 01:28:16;;;;;;;17.00;9.63;;;;;;;-141.97;62.69;47465.25;5044786;28;20190;-79
2023/09/24 01:30:43;;;;;;;17.30;9.90;;;;;;;-141.97;62.80;47678.63;5013038;28;20272;-79
2023/09/24 01:33:09;;;;;;;18.30;9.63;;;;;;;-141.97;62.89;47653.63;5012867;28;20166;-79
2023/09/24 01:35:36;;;;;;;17.13;10.00;;;;;;;-141.97;63.01;47611.34;5013101;28;20178;-79
2023/09/24 01:38:05;;;;;;;18.47;10.17;;;;;;;-141.97;63.63;47490.25;5013188;28;20516;-79
2023/09/24 01:40:37;;;;;;;18.10;9.57;;;;;;;-141.97;63.53;47488.31;5011663;28;20254;-79
2023/09/24 01:43:05;;;;;;;16.07;10.03;;;;;;;-141.97;63.50;47434.50;5044757;28;20170;-79
2023/09/24 01:45:33;;;;;;;18.23;10.03;;;;;;;-141.97;63.79;47494.09;5011266;28;20225;-79
2023/09/24 01:47:59;;;;;;;16.53;9.90;;;;;;;-141.97;63.54;47436.44;5012665;28;20249;-79
2023/09/24 01:50:27;;;;;;;16.33;9.77;;;;;;;-141.97;63.77;47480.63;5044343;28;20221;-79
2023/09/24 01:52:55;;;;;;;20.03;10.27;;;;;;;-141.97;63.98;47478.72;5012831;28;20167;-79
2023/09/24 01:55:21;;;;;;;15.63;10.47;;;;;;;-141.97;63.87;47509.47;5012105;28;20159;-79
2023/09/24 01:57:47;;;;;;;16.27;10.27;;;;;;;-141.97;64.16;47474.88;5012478;28;20173;-79
2023/09/24 02:00:21;;;;;;;19.67;10.30;;;;;;;-141.97;64.11;47503.69;5012418;28;20167;-79
2023/09/24 02:02:48;;;;;;;17.90;10.30;;;;;;;-141.97;63.88;47476.78;5010895;28;20178;-79
2023/09/24 02:05:15;;;;;;;17.10;9.73;;;;;;;-141.97;63.71;47478.72;5012436;28;20155;-79
2023/09/24 02:07:40;;;;;;;16.77;9.60;;;;;;;-141.97;63.94;47446.03;5011330;28;20244;-80
2023/09/24 02:10:07;;;;;;;16.70;10.20;;;;;;;-141.97;64.18;47503.69;5010986;28;20198;-80
2023/09/24 02:12:36;;;;;;;16.37;10.30;;;;;;;-141.97;63.80;47505.63;5012068;28;20233;-79
2023/09/24 02:15:09;;;;;;;15.67;10.03;;;;;;;-141.97;63.76;47474.88;5012533;28;20171;-79
2023/09/24 02:17:35;;;;;;;17.17;10.20;;;;;;;-141.97;63.88;47496.00;5012480;28;20162;-79
2023/09/24 02:20:07;;;;;;;17.60;10.27;;;;;;;-141.97;63.67;47469.09;5012270;28;20163;-79
2023/09/24 02:22:33;;;;;;;20.07;11.37;;;;;;;-141.97;63.97;47486.41;5022406;28;20239;-79
2023/09/24 02:24:58;;;;;;;15.03;10.40;;;;;;;-141.97;63.80;47480.63;5022556;28;20228;-79
2023/09/24 02:27:25;;;;;;;17.53;10.90;;;;;;;-141.97;64.28;47521.00;5049743;28;20170;-79
2023/09/24 02:29:53;;;;;;;16.57;10.23;;;;;;;-141.97;64.18;47503.69;5013399;28;20690;-79
2023/09/24 02:32:18;;;;;;;17.30;10.50;;;;;;;-141.97;64.63;47386.47;5012180;28;20155;-79
2023/09/24 02:34:44;;;;;;;15.83;10.50;;;;;;;-141.97;64.49;47515.22;5018608;28;20652;-79
2023/09/24 02:37:10;;;;;;;19.50;10.70;;;;;;;-141.97;64.46;47513.31;5016224;28;20162;-79
2023/09/24 02:39:36;;;;;;;22.60;10.90;;;;;;;-141.97;64.63;47482.56;5011791;28;20229;-80
2023/09/24 02:42:02;;;;;;;23.30;10.60;;;;;;;-141.97;64.31;47463.34;5011773;28;20201;-79
2023/09/24 02:44:27;;;;;;;17.07;10.43;;;;;;;-141.97;64.14;47522.91;5011729;28;20198;-79
2023/09/24 02:46:53;;;;;;;18.63;10.70;;;;;;;-141.97;64.67;47515.22;5011461;28;20163;-79
2023/09/24 02:49:20;;;;;;;18.10;10.70;;;;;;;-141.97;64.45;47474.88;5010244;28;20212;-79
2023/09/24 02:51:46;;;;;;;18.83;10.63;;;;;;;-141.97;64.32;47484.47;5010574;28;20182;-79
2023/09/24 02:54:11;;;;;;;16.67;10.53;;;;;;;-141.97;65.22;47494.09;5011923;28;20159;-80
2023/09/24 02:56:37;;;;;;;17.87;10.63;;;;;;;-141.97;65.31;47665.16;5043327;28;20174;-79
2023/09/24 02:59:02;;;;;;;16.43;10.07;;;;;;;-141.97;65.66;47519.06;5011345;28;20289;-79
2023/09/24 03:01:28;;;;;;;15.27;10.20;;;;;;;-141.97;65.85;47449.88;5011109;28;20611;-80
2023/09/24 03:03:54;;;;;;;20.13;10.73;;;;;;;-141.97;65.92;47538.28;5011291;28;20174;-80
2023/09/24 03:06:20;;;;;;;16.17;10.30;;;;;;;-141.97;65.55;47534.44;5005779;28;20175;-79
2023/09/24 03:08:49;;;;;;;18.47;10.67;;;;;;;-141.97;65.67;47486.41;4991899;28;20175;-80
2023/09/24 03:11:14;;;;;;;18.70;10.50;;;;;;;-141.97;65.76;47511.38;4991964;28;20167;-79
2023/09/24 03:13:40;;;;;;;19.67;11.13;;;;;;;-141.97;65.73;47496.00;5023009;28;20222;-80
2023/09/24 03:16:06;;;;;;;17.17;11.20;;;;;;;-141.97;66.16;47411.44;5023328;28;20219;-80
2023/09/24 03:18:32;;;;;;;19.93;11.47;;;;;;;-141.97;65.93;47734.34;4992333;28;20163;-79
2023/09/24 03:20:57;;;;;;;16.40;10.67;;;;;;;-141.97;65.89;47494.09;5023141;28;20234;-79
2023/09/24 03:23:23;;;;;;;18.83;11.57;;;;;;;-141.97;65.81;47471.03;4991700;28;20162;-79
2023/09/24 03:25:48;;;;;;;19.07;10.90;;;;;;;-141.97;65.93;47632.47;5023081;28;20663;-79
2023/09/24 03:28:13;;;;;;;17.33;10.57;;;;;;;-141.97;65.63;47511.38;4991437;28;20218;-79
2023/09/24 03:30:39;;;;;;;16.97;10.53;;;;;;;-141.97;66.08;47480.63;4991197;28;21435;-79
2023/09/24 03:33:04;;;;;;;20.27;11.13;;;;;;;-141.97;66.07;47509.47;4991408;28;20171;-80
2023/09/24 03:35:30;;;;;;;19.77;11.37;;;;;;;-141.97;66.20;47505.63;4991372;28;20164;-79
2023/09/24 03:37:56;;;;;;;21.27;11.00;;;;;;;-141.97;66.13;47499.84;5022995;28;20179;-79
2023/09/24 03:40:24;;;;;;;20.13;11.17;;;;;;;-141.97;66.32;47526.75;4991492;28;20162;-80
2023/09/24 03:42:50;;;;;;;19.00;11.90;;;;;;;-141.97;66.38;47465.25;4991608;28;20644;-80
2023/09/24 03:45:17;;;;;;;15.40;10.77;;;;;;;-141.97;66.42;47534.44;5022636;28;20205;-79
2023/09/24 03:47:45;;;;;;;18.90;10.67;;;;;;;-141.97;66.68;47492.16;4991328;28;20171;-79
2023/09/24 03:50:17;;;;;;;22.37;11.03;;;;;;;-141.97;66.29;47505.63;4991180;28;20192;-81
2023/09/24 03:52:46;;;;;;;17.83;10.97;;;;;;;-141.97;66.66;47388.38;4989695;28;20171;-79
2023/09/24 03:55:12;;;;;;;20.33;10.53;;;;;;;-141.97;66.55;47609.41;4991111;28;20283;-80
2023/09/24 03:57:39;;;;;;;18.43;10.90;;;;;;;-141.97;66.64;47469.09;4991156;28;20720;-79
2023/09/24 04:00:15;;;;;;;20.60;10.83;;;;;;;-141.97;66.81;47517.16;5022515;28;20274;-79
2023/09/24 04:02:43;;;;;;;16.17;10.80;;;;;;;-141.97;66.97;47503.69;5007068;28;20182;-79
2023/09/24 04:05:09;;;;;;;18.43;10.70;;;;;;;-141.97;66.83;47496.00;5010524;28;20623;-79
2023/09/24 04:07:38;;;;;;;16.80;10.77;;;;;;;-141.97;67.07;47472.94;5009199;28;20179;-80
2023/09/24 04:10:05;;;;;;;19.07;11.30;;;;;;;-141.97;67.05;47521.00;5010442;28;20194;-80
2023/09/24 04:12:33;;;;;;;20.93;10.80;;;;;;;-141.97;67.02;47496.00;5010352;28;20237;-79
2023/09/24 04:15:00;;;;;;;17.37;10.60;;;;;;;-141.97;66.96;47521.00;5010531;28;20234;-80
2023/09/24 04:17:25;;;;;;;18.67;10.57;;;;;;;-141.97;67.06;47522.91;5011766;28;20544;-80
2023/09/24 04:19:51;;;;;;;17.17;10.93;;;;;;;-141.97;67.34;47669.00;5014380;28;20649;-80
2023/09/24 04:22:17;;;;;;;16.67;10.60;;;;;;;-141.97;67.19;47521.00;5012934;28;20237;-80
2023/09/24 04:24:43;;;;;;;19.03;10.47;;;;;;;-141.97;67.13;47547.91;5013875;28;20162;-79
2023/09/24 04:27:09;;;;;;;21.17;10.77;;;;;;;-141.97;66.98;47499.84;5013908;28;20616;-80
2023/09/24 04:29:34;;;;;;;16.10;10.83;;;;;;;-141.97;66.66;47499.84;5014094;28;20187;-81
2023/09/24 04:32:00;;;;;;;16.23;10.40;;;;;;;-141.97;66.74;47546.00;5012593;28;20675;-80
2023/09/24 04:34:26;;;;;;;17.90;10.23;;;;;;;-141.97;66.25;47503.69;5012902;28;20202;-80
2023/09/24 04:36:51;;;;;;;18.43;10.83;;;;;;;-141.97;66.44;47553.69;5014277;28;20221;-81
2023/09/24 04:39:18;;;;;;;17.17;10.50;;;;;;;-141.97;66.49;47505.63;5013801;28;20186;-80
2023/09/24 04:41:43;;;;;;;16.93;10.83;;;;;;;-141.97;66.44;47522.91;5014152;28;20171;-80
2023/09/24 04:44:09;;;;;;;21.03;10.43;;;;;;;-141.97;66.13;47499.84;5045655;28;20171;-80
2023/09/24 04:46:35;;;;;;;19.00;10.57;;;;;;;-141.97;65.64;47515.22;5013778;28;20177;-80
2023/09/24 04:49:04;;;;;;;19.13;10.40;;;;;;;-141.97;65.92;47713.22;5013613;28;20565;-80
2023/09/24 04:51:32;;;;;;;19.27;11.27;;;;;;;-141.97;65.56;47515.22;5013834;28;20252;-79
2023/09/24 04:53:58;;;;;;;18.37;10.03;;;;;;;-141.97;65.64;47490.25;5012392;28;20178;-79
2023/09/24 04:56:24;;;;;;;17.10;10.40;;;;;;;-141.97;65.61;47497.94;5014034;28;20658;-79
2023/09/24 04:58:49;;;;;;;17.67;10.67;;;;;;;-141.97;65.42;47513.31;5013722;28;20196;-80
2023/09/24 05:01:15;;;;;;;24.97;14.00;;;;;;;-141.97;63.96;47521.00;5045765;28;20170;-80
2023/09/24 05:03:42;;;;;;;25.57;14.60;;;;;;;-141.97;63.77;47480.63;5013819;28;20228;-81
2023/09/24 05:06:07;;;;;;;27.90;17.00;;;;;;;-141.97;64.39;47526.75;5045549;28;20206;-80
2023/09/24 05:08:32;;;;;;;32.03;17.17;;;;;;;-141.97;64.97;47371.09;5045867;28;20654;-80
2023/09/24 05:10:58;;;;;;;40.40;17.07;;;;;;;-141.97;65.79;47561.38;5014355;28;20191;-79
2023/09/24 05:13:24;;;;;;;32.83;16.90;;;;;;;-141.97;65.64;47546.00;5058378;28;20222;-80
2023/09/24 05:15:51;;;;;;;31.30;16.00;;;;;;;-141.97;67.26;47505.63;5026788;28;20178;-79
2023/09/24 05:18:16;;;;;;;27.57;15.07;;;;;;;-141.97;67.63;47474.88;5017934;28;20163;-79
2023/09/24 05:20:42;;;;;;;26.23;14.57;;;;;;;-141.97;67.31;47509.47;5013160;28;20246;-79
2023/09/24 05:23:07;;;;;;;26.10;14.23;;;;;;;-141.97;67.81;47607.50;5013809;28;20650;-80
2023/09/24 05:25:36;;;;;;;25.57;14.50;;;;;;;-141.97;67.10;47497.94;5012051;28;20171;-80
2023/09/24 05:28:02;;;;;;;25.13;14.40;;;;;;;-141.97;66.51;47486.41;5012950;28;20618;-79
2023/09/24 05:30:28;;;;;;;29.73;14.67;;;;;;;-141.97;66.64;47682.47;5012890;28;20766;-79
2023/09/24 05:32:53;;;;;;;28.90;14.93;;;;;;;-141.97;65.84;47398.00;5013694;28;20186;-80
2023/09/24 05:35:18;;;;;;;26.47;14.77;;;;;;;-141.97;65.45;47509.47;5012226;28;20166;-79
2023/09/24 05:37:44;;;;;;;23.20;14.07;;;;;;;-141.97;65.50;47540.22;5013050;28;20623;-79
2023/09/24 05:40:10;;;;;;;29.73;14.67;;;;;;;-141.97;64.83;47519.06;5013018;28;20166;-79
2023/09/24 05:42:35;;;;;;;23.07;14.67;;;;;;;-141.97;64.37;47695.91;5044942;28;20166;-79
2023/09/24 05:45:01;;;;;;;31.27;16.00;;;;;;;-141.97;64.16;47494.09;5013424;28;20689;-79
2023/09/24 05:47:27;;;;;;;40.63;17.00;;;;;;;-141.97;63.22;47519.06;5012990;28;20161;-79
2023/09/24 05:49:53;;;;;;;32.67;15.33;;;;;;;-141.97;63.24;47499.84;5012817;28;20191;-80
2023/09/24 05:52:18;;;;;;;31.27;14.20;;;;;;;-141.97;62.87;47522.91;5012641;28;20170;-81
2023/09/24 05:54:45;;;;;;;30.23;13.93;;;;;;;-141.97;62.57;47492.16;5011577;28;20203;-79
2023/09/24 05:57:10;;;;;;;25.13;13.33;;;;;;;-141.97;62.12;47484.47;5012928;28;20166;-79
2023/09/24 05:59:36;;;;;;;23.23;11.17;;;;;;;-141.97;62.40;47515.22;5014670;28;20182;-82
2023/09/24 06:02:01;;;;;;;21.03;11.30;;;;;;;-141.97;62.03;47496.00;5027975;28;20178;-80
2023/09/24 06:04:26;;;;;;;19.90;10.43;;;;;;;-141.97;61.36;47536.38;5025434;28;20174;-80
2023/09/24 06:06:52;;;;;;;17.23;10.10;;;;;;;-141.97;61.18;47507.53;5019691;28;20171;-80
2023/09/24 06:09:17;;;;;;;19.60;10.77;;;;;;;-141.97;61.26;47492.16;5014321;28;20187;-80
2023/09/24 06:11:47;;;;;;;18.67;11.07;;;;;;;-141.97;60.77;47488.31;5012330;28;20265;-80
2023/09/24 06:14:12;;;;;;;16.83;10.07;;;;;;;-141.97;60.17;47499.84;5012601;28;20194;-81
2023/09/24 06:16:38;;;;;;;15.00;10.07;;;;;;;-141.97;59.66;47501.78;5010861;28;20272;-81
2023/09/24 06:19:04;;;;;;;22.37;10.70;;;;;;;-141.97;59.66;47478.72;5012546;28;20166;-79
2023/09/24 06:21:29;;;;;;;16.87;10.33;;;;;;;-141.97;58.79;47486.41;5012073;28;20163;-80
2023/09/24 06:23:57;;;;;;;18.93;10.80;;;;;;;-141.97;58.76;47488.31;5012245;28;20171;-79
2023/09/24 06:26:24;;;;;;;17.47;10.73;;;;;;;-141.97;57.11;47463.34;5011937;28;20179;-80
2023/09/24 06:28:50;;;;;;;17.23;10.57;;;;;;;-141.97;57.00;47457.56;5011695;28;20165;-79
2023/09/24 06:31:16;;;;;;;15.87;9.70;;;;;;;-141.97;56.50;47499.84;5011234;28;20667;-79
2023/09/24 06:33:41;;;;;;;16.50;10.03;;;;;;;-141.97;56.53;47465.25;5011898;28;20213;-79
2023/09/24 06:36:09;;;;;;;17.00;9.93;;;;;;;-141.97;56.18;47480.63;5012221;28;20257;-79
2023/09/24 06:38:35;;;;;;;19.57;9.27;;;;;;;-141.97;55.35;47480.63;5011377;28;20608;-79
2023/09/24 06:41:04;;;;;;;19.40;9.73;;;;;;;-141.97;55.20;47480.63;5010978;28;20221;-79
2023/09/24 06:43:31;;;;;;;18.57;9.50;;;;;;;-141.97;54.96;47488.31;5011325;28;20229;-79
2023/09/24 06:45:56;;;;;;;16.20;9.43;;;;;;;-141.97;54.66;47484.47;5011126;28;20607;-80
2023/09/24 06:48:23;;;;;;;15.50;9.03;;;;;;;-141.97;53.81;47472.94;5042752;28;20185;-79
2023/09/24 06:50:49;;;;;;;14.03;9.00;;;;;;;-141.97;53.18;47426.81;5011168;28;20222;-79
2023/09/24 06:53:15;;;;;;;16.40;8.97;;;;;;;-141.97;52.64;47455.66;5011214;28;20163;-79
2023/09/24 06:55:41;;;;;;;20.33;10.17;;;;;;;-141.97;52.54;47559.44;5011216;28;20178;-81
2023/09/24 06:58:06;;;;;;;19.63;10.70;;;;;;;-141.97;53.12;47421.06;5011814;28;20627;-80
2023/09/24 07:00:32;;;;;;;14.90;9.60;;;;;;;-141.97;52.79;47461.41;5011366;28;20201;-79
2023/09/24 07:02:58;;;;;;;16.57;9.30;;;;;;;-141.97;53.41;47461.41;5011034;28;20245;-79
2023/09/24 07:05:23;;;;;;;17.60;9.83;;;;;;;-141.97;53.13;47457.56;5011209;28;20686;-81
2023/09/24 07:07:49;;;;;;;15.60;9.70;;;;;;;-141.97;52.78;47476.78;5011556;28;20167;-80
2023/09/24 07:10:14;;;;;;;17.83;9.57;;;;;;;-141.97;52.99;47482.56;5011001;28;20270;-80
2023/09/24 07:12:42;;;;;;;18.00;9.93;;;;;;;-141.97;53.32;47480.63;5011098;28;20671;-79
2023/09/24 07:15:08;;;;;;;17.53;9.83;;;;;;;-141.97;53.57;47451.81;5011164;28;20197;-79
2023/09/24 07:17:35;;;;;;;15.73;9.10;;;;;;;-141.97;52.26;47453.72;5010832;28;20620;-79
2023/09/24 07:20:01;;;;;;;21.27;11.60;;;;;;;-141.97;52.28;47461.41;5011021;28;20224;-79
2023/09/24 07:22:26;;;;;;;15.30;8.87;;;;;;;-141.97;51.30;47471.03;5010733;28;20180;-80
2023/09/24 07:24:54;;;;;;;15.98;9.73;;;;;;;-141.97;51.51;47467.19;5011001;28;20187;-79
2023/09/24 07:27:20;;;;;;;19.00;10.90;;;;;;;-141.97;51.59;47465.25;5010561;28;20171;-80
2023/09/24 07:29:46;;;;;;;17.20;10.10;;;;;;;-141.97;51.16;47455.66;5010641;28;20186;-79
2023/09/24 07:32:12;;;;;;;15.05;10.05;;;;;;;-141.97;49.99;47480.63;5011654;28;20167;-80
2023/09/24 07:34:37;;;;;;;19.98;10.68;;;;;;;-141.97;49.20;47446.03;5011986;28;20170;-79
2023/09/24 07:37:05;;;;;;;19.25;9.65;;;;;;;-141.97;49.13;47422.97;5011581;28;20246;-78
2023/09/24 07:39:30;;;;;;;14.40;9.43;;;;;;;-141.97;49.11;47463.34;5005702;28;20184;-79
2023/09/24 07:41:56;;;;;;;19.35;9.63;;;;;;;-141.97;48.73;47444.13;4991223;28;20514;-80
2023/09/24 07:44:21;;;;;;;17.60;9.38;;;;;;;-141.97;47.83;47376.84;4991346;28;20172;-79
2023/09/24 07:46:48;;;;;;;14.93;8.85;;;;;;;-141.97;48.15;47457.56;4990511;28;20272;-79
2023/09/24 07:49:14;;;;;;;17.35;9.40;;;;;;;-141.97;47.90;47432.59;5023400;28;20258;-80
2023/09/24 07:51:41;;;;;;;20.98;9.93;;;;;;;-141.97;47.54;47453.72;4992281;28;20197;-81
2023/09/24 07:54:07;;;;;;;21.27;10.15;;;;;;;-141.97;48.25;47488.31;5000423;28;20167;-79
2023/09/24 07:56:33;;;;;;;16.48;9.30;;;;;;;-141.97;47.78;47438.34;5006522;28;20162;-77
2023/09/24 07:58:59;;;;;;;15.50;9.38;;;;;;;-141.97;47.89;47384.53;5005367;28;20246;-78
2023/09/24 08:01:24;;;;;;;16.70;10.23;;;;;;;-141.97;46.83;47453.72;4994823;28;20163;-78
2023/09/24 08:03:51;;;;;;;14.20;9.45;;;;;;;-141.97;46.33;47453.72;4994644;28;20167;-78
2023/09/24 08:06:18;;;;;;;17.00;8.85;;;;;;;-141.97;45.93;47451.81;4994480;28;20259;-78
2023/09/24 08:08:43;;;;;;;16.08;9.32;;;;;;;-141.97;46.24;47467.19;5026262;28;20167;-79
2023/09/24 08:11:09;;;;;;;18.08;9.75;;;;;;;-141.97;46.32;47428.75;4994420;28;20198;-79
2023/09/24 08:13:34;;;;;;;15.82;9.55;;;;;;;-141.97;46.38;47447.97;4994448;28;20283;-79
2023/09/24 08:16:00;;;;;;;18.92;8.90;;;;;;;-141.97;46.13;47432.59;4994064;28;20167;-79
2023/09/24 08:18:26;;;;;;;17.52;9.15;;;;;;;-141.97;46.36;47465.25;4994466;28;20167;-81
2023/09/24 08:20:55;;;;;;;14.93;9.10;;;;;;;-141.97;45.96;47472.94;5026635;28;20164;-80
2023/09/24 08:23:21;;;;;;;15.60;9.45;;;;;;;-141.97;46.34;47403.75;4995266;28;20655;-78
2023/09/24 08:25:50;;;;;;;17.40;9.35;;;;;;;-141.97;45.75;47449.88;4995223;28;20167;-80
2023/09/24 08:28:17;;;;;;;21.80;9.88;;;;;;;-141.97;44.86;47411.44;4995065;28;20161;-80
2023/09/24 08:30:42;;;;;;;13.57;9.52;;;;;;;-141.97;43.90;47407.59;4994230;28;20195;-79
2023/09/24 08:33:09;;;;;;;18.02;9.48;;;;;;;-141.97;43.67;47453.72;4995212;28;20251;-79
2023/09/24 08:35:36;;;;;;;16.33;9.02;;;;;;;-141.97;43.47;47424.91;5008917;28;20189;-79
2023/09/24 08:38:02;;;;;;;17.25;9.55;;;;;;;-141.97;43.06;47421.06;5014217;28;20163;-79
2023/09/24 08:40:32;;;;;;;19.38;9.20;;;;;;;-141.97;44.28;47426.81;5013762;28;20230;-79
2023/09/24 08:42:58;;;;;;;17.48;9.50;;;;;;;-141.97;44.28;47447.97;5013924;28;20578;-78
2023/09/24 08:45:28;;;;;;;15.27;9.10;;;;;;;-141.97;43.70;47409.53;5013888;28;20213;-79
2023/09/24 08:47:54;;;;;;;14.88;9.50;;;;;;;-141.97;43.38;47384.53;5013237;28;20174;-79
2023/09/24 08:50:20;;;;;;;15.02;9.18;;;;;;;-141.97;43.47;47324.97;5013644;28;20198;-78
2023/09/24 08:52:46;;;;;;;16.88;10.18;;;;;;;-141.97;44.57;47436.44;5013380;28;20616;-79
2023/09/24 08:55:13;;;;;;;20.42;9.50;;;;;;;-141.97;44.09;47398.00;5013177;28;20312;-79
2023/09/24 08:57:39;;;;;;;16.83;10.18;;;;;;;-141.97;43.09;47509.47;5027918;28;20173;-78
2023/09/24 09:00:06;;;;;;;16.13;9.27;;;;;;;-141.97;43.06;47405.69;5012944;28;20217;-80
2023/09/24 09:02:35;;;;;;;17.05;9.43;;;;;;;-141.97;41.55;47384.53;5012935;28;20163;-79
2023/09/24 09:05:04;;;;;;;16.20;9.25;;;;;;;-141.97;42.63;47394.16;5013401;28;20264;-80
2023/09/24 09:07:29;;;;;;;13.65;8.90;;;;;;;-141.97;42.89;47405.69;5013618;28;20248;-79
2023/09/24 09:09:56;;;;;;;20.25;9.35;;;;;;;-141.97;42.27;47380.69;5014942;28;20360;-80
2023/09/24 09:12:28;;;;;;;19.77;10.55;;;;;;;-141.97;41.11;47399.91;5013463;28;20220;-80
2023/09/24 09:14:55;;;;;;;19.83;9.55;;;;;;;-141.97;40.43;47363.41;5013436;28;20182;-79
2023/09/24 09:17:21;;;;;;;18.02;9.35;;;;;;;-141.97;40.61;47384.53;5013625;28;20176;-79
2023/09/24 09:19:48;;;;;;;15.35;8.85;;;;;;;-141.97;40.68;47376.84;5022958;28;20192;-79
2023/09/24 09:22:17;;;;;;;18.55;9.10;;;;;;;-141.97;40.20;47376.84;5026313;28;20173;-79
2023/09/24 09:24:43;;;;;;;19.90;9.60;;;;;;;-141.97;40.05;47376.84;5021640;28;20199;-79
2023/09/24 09:27:09;;;;;;;18.52;9.57;;;;;;;-141.97;40.26;47407.59;5014542;28;20594;-79
2023/09/24 09:29:34;;;;;;;16.73;9.25;;;;;;;-141.97;40.45;47390.31;5013302;28;20196;-78
2023/09/24 09:32:00;;;;;;;17.52;9.20;;;;;;;-141.97;41.21;47367.25;5012769;28;20172;-79
2023/09/24 09:34:25;;;;;;;16.85;8.63;;;;;;;-141.97;40.40;47396.06;5012567;28;20264;-80
2023/09/24 09:36:50;;;;;;;18.10;9.00;;;;;;;-141.97;40.08;47330.72;5012976;28;20170;-80
2023/09/24 09:39:16;;;;;;;20.15;8.73;;;;;;;-141.97;39.42;47349.94;5012883;28;20173;-78
2023/09/24 09:41:42;;;;;;;19.55;8.38;;;;;;;-141.97;38.58;47357.63;5012829;28;20169;-80
2023/09/24 09:44:08;;;;;;;15.95;9.18;;;;;;;-141.97;38.41;47365.31;5013184;28;20174;-79
2023/09/24 09:46:37;;;;;;;16.83;8.80;;;;;;;-141.97;39.06;47386.47;5012520;28;20180;-80
2023/09/24 09:49:07;;;;;;;17.50;8.25;;;;;;;-141.97;39.07;47380.69;5012289;28;20169;-80
2023/09/24 09:51:47;;;;;;;15.90;9.00;;;;;;;-141.97;38.55;47353.78;5012688;28;20171;-79
2023/09/24 09:54:13;;;;;;;16.40;7.93;;;;;;;-141.97;39.03;47353.78;5044019;28;20572;-78
2023/09/24 09:56:40;;;;;;;21.45;9.13;;;;;;;-141.97;38.84;47353.78;5012370;28;20177;-79
2023/09/24 09:59:06;;;;;;;20.55;8.65;;;;;;;-141.97;38.13;47294.22;5012013;28;20220;-79
2023/09/24 10:01:32;;;;;;;12.93;8.48;;;;;;;-141.97;37.56;47367.25;5012040;28;20542;-79
2023/09/24 10:03:59;;;;;;;16.90;8.30;;;;;;;-141.97;37.56;47349.94;5012322;28;20165;-79
2023/09/24 10:06:25;;;;;;;18.33;8.45;;;;;;;-141.97;37.61;47338.41;5012431;28;20162;-80
2023/09/24 10:08:52;;;;;;;19.77;8.50;;;;;;;-141.97;38.01;47321.13;5012441;28;20171;-81
2023/09/24 10:11:30;;;;;;;18.75;8.52;;;;;;;-141.97;37.34;47340.34;5011997;28;20194;-80
2023/09/24 10:13:57;;;;;;;20.20;8.65;;;;;;;-141.97;36.95;47351.88;5012255;28;20232;-79
2023/09/24 10:16:25;;;;;;;19.42;8.93;;;;;;;-141.97;36.82;47378.78;5011521;28;20576;-79
2023/09/24 10:19:01;;;;;;;19.25;8.35;;;;;;;-141.97;36.40;47351.88;5012061;28;20266;-80
2023/09/24 10:21:37;;;;;;;13.40;8.57;;;;;;;-141.97;36.08;47340.34;5011890;28;20171;-79
2023/09/24 10:24:14;;;;;;;24.17;8.88;;;;;;;-141.97;37.17;47353.78;5011663;28;20257;-79
2023/09/24 10:27:03;;;;;;;16.65;8.73;;;;;;;-141.97;36.71;47363.41;5011420;28;20182;-79
2023/09/24 10:29:51;;;;;;;20.23;8.57;;;;;;;-141.97;37.84;47363.41;5011729;28;20190;-79
2023/09/24 10:32:17;;;;;;;17.05;8.77;;;;;;;-141.97;37.68;47374.94;5011362;28;20557;-79
2023/09/24 10:34:54;;;;;;;19.75;9.02;;;;;;;-141.97;37.82;47355.72;5014307;28;20171;-79
2023/09/24 10:37:29;;;;;;;19.60;8.93;;;;;;;-141.97;37.41;47338.41;5018445;28;20163;-79
2023/09/24 10:40:09;;;;;;;15.35;8.50;;;;;;;-141.97;36.90;47315.34;5017770;28;20245;-79
2023/09/24 10:42:39;;;;;;;16.23;8.95;;;;;;;-141.97;36.01;47342.25;5011411;28;20155;-79
2023/09/24 10:45:07;;;;;;;17.00;9.52;;;;;;;-141.97;35.88;47311.50;5011507;28;20611;-79
2023/09/24 10:47:36;;;;;;;20.15;8.50;;;;;;;-141.97;36.38;47346.09;5011414;28;20163;-79
2023/09/24 10:50:18;;;;;;;16.70;8.48;;;;;;;-141.97;37.25;47321.13;5011921;28;20667;-79
2023/09/24 10:52:49;;;;;;;17.38;8.35;;;;;;;-141.97;37.17;47344.19;5011546;28;20534;-79
2023/09/24 10:55:16;;;;;;;22.15;8.82;;;;;;;-141.97;37.53;47303.81;5009984;28;20584;-79
2023/09/24 10:57:52;;;;;;;20.38;9.07;;;;;;;-141.97;36.80;47315.34;5011263;28;20170;-80
2023/09/24 11:00:20;;;;;;;15.35;8.38;;;;;;;-141.97;36.87;47342.25;5011255;28;20241;-79
2023/09/24 11:02:52;;;;;;;21.35;8.93;;;;;;;-141.97;36.51;47361.47;5010888;28;20171;-79